sensor_id;sensor_type;location;lat;lon;timestamp;P1;durP1;ratioP1;P2;durP2;ratioP2
51499;SDS011;39101;53.478;6.158;2022-07-29T00:00:45;8.60;;;2.22;;
51499;SDS011;39101;53.478;6.158;2022-07-29T00:03:11;7.72;;;1.23;;
51499;SDS011;39101;53.478;6.158;2022-07-29T00:05:38;6.32;;;1.00;;
51499;SDS011;39101;53.478;6.158;2022-07-29T00:08:05;2.55;;;0.98;;
51499;SDS011;39101;53.478;6.158;2022-07-29T00:10:31;7.43;;;1.58;;
51499;SDS011;39101;53.478;6.158;2022-07-29T00:12:57;6.70;;;1.20;;
51499;SDS011;39101;53.478;6.158;2022-07-29T00:15:22;5.07;;;1.10;;
51499;SDS011;39101;53.478;6.158;2022-07-29T00:17:48;4.22;;;1.35;;
51499;SDS011;39101;53.478;6.158;2022-07-29T00:20:14;5.00;;;1.10;;
51499;SDS011;39101;53.478;6.158;2022-07-29T00:22:40;3.15;;;1.13;;
51499;SDS011;39101;53.478;6.158;2022-07-29T00:25:06;5.93;;;0.90;;
51499;SDS011;39101;53.478;6.158;2022-07-29T00:27:33;4.82;;;1.30;;
51499;SDS011;39101;53.478;6.158;2022-07-29T00:29:59;4.65;;;1.20;;
51499;SDS011;39101;53.478;6.158;2022-07-29T00:32:25;3.90;;;1.00;;
51499;SDS011;39101;53.478;6.158;2022-07-29T00:34:51;5.15;;;1.33;;
51499;SDS011;39101;53.478;6.158;2022-07-29T00:37:35;7.07;;;1.15;;
51499;SDS011;39101;53.478;6.158;2022-07-29T00:40:01;5.82;;;1.00;;
51499;SDS011;39101;53.478;6.158;2022-07-29T00:42:27;5.05;;;1.60;;
51499;SDS011;39101;53.478;6.158;2022-07-29T00:44:53;3.47;;;1.00;;
51499;SDS011;39101;53.478;6.158;2022-07-29T00:47:19;5.43;;;2.15;;
51499;SDS011;39101;53.478;6.158;2022-07-29T00:49:45;3.30;;;1.10;;
51499;SDS011;39101;53.478;6.158;2022-07-29T00:52:11;2.30;;;1.02;;
51499;SDS011;39101;53.478;6.158;2022-07-29T00:54:37;15.05;;;2.38;;
51499;SDS011;39101;53.478;6.158;2022-07-29T00:57:05;3.42;;;1.13;;
51499;SDS011;39101;53.478;6.158;2022-07-29T00:59:32;3.35;;;1.10;;
51499;SDS011;39101;53.478;6.158;2022-07-29T01:01:58;3.63;;;1.02;;
51499;SDS011;39101;53.478;6.158;2022-07-29T01:04:24;7.88;;;1.60;;
51499;SDS011;39101;53.478;6.158;2022-07-29T01:06:50;4.05;;;1.30;;
51499;SDS011;39101;53.478;6.158;2022-07-29T01:09:16;5.00;;;1.40;;
51499;SDS011;39101;53.478;6.158;2022-07-29T01:11:44;3.72;;;1.35;;
51499;SDS011;39101;53.478;6.158;2022-07-29T01:14:12;6.82;;;1.73;;
51499;SDS011;39101;53.478;6.158;2022-07-29T01:16:42;3.25;;;1.30;;
51499;SDS011;39101;53.478;6.158;2022-07-29T01:21:59;4.93;;;1.58;;
51499;SDS011;39101;53.478;6.158;2022-07-29T01:30:25;6.75;;;2.08;;
51499;SDS011;39101;53.478;6.158;2022-07-29T01:32:56;7.50;;;1.80;;
51499;SDS011;39101;53.478;6.158;2022-07-29T01:35:28;4.13;;;1.33;;
51499;SDS011;39101;53.478;6.158;2022-07-29T01:38:05;5.00;;;1.27;;
51499;SDS011;39101;53.478;6.158;2022-07-29T01:40:45;7.50;;;1.40;;
51499;SDS011;39101;53.478;6.158;2022-07-29T01:43:23;6.03;;;2.00;;
51499;SDS011;39101;53.478;6.158;2022-07-29T01:45:59;8.52;;;2.25;;
51499;SDS011;39101;53.478;6.158;2022-07-29T01:48:39;2.15;;;1.33;;
51499;SDS011;39101;53.478;6.158;2022-07-29T01:51:20;3.92;;;1.38;;
51499;SDS011;39101;53.478;6.158;2022-07-29T01:53:54;3.70;;;1.70;;
51499;SDS011;39101;53.478;6.158;2022-07-29T01:56:29;4.25;;;1.63;;
51499;SDS011;39101;53.478;6.158;2022-07-29T01:58:59;6.00;;;1.70;;
51499;SDS011;39101;53.478;6.158;2022-07-29T02:01:28;3.97;;;2.10;;
51499;SDS011;39101;53.478;6.158;2022-07-29T02:03:57;3.30;;;1.20;;
51499;SDS011;39101;53.478;6.158;2022-07-29T02:06:24;4.70;;;1.90;;
51499;SDS011;39101;53.478;6.158;2022-07-29T02:08:52;5.50;;;1.90;;
51499;SDS011;39101;53.478;6.158;2022-07-29T02:11:19;5.47;;;2.03;;
51499;SDS011;39101;53.478;6.158;2022-07-29T02:13:45;8.93;;;1.70;;
51499;SDS011;39101;53.478;6.158;2022-07-29T02:16:12;9.18;;;2.17;;
51499;SDS011;39101;53.478;6.158;2022-07-29T02:18:41;4.93;;;1.67;;
51499;SDS011;39101;53.478;6.158;2022-07-29T02:21:10;7.82;;;2.58;;
51499;SDS011;39101;53.478;6.158;2022-07-29T02:23:38;6.18;;;1.90;;
51499;SDS011;39101;53.478;6.158;2022-07-29T02:26:04;5.07;;;1.85;;
51499;SDS011;39101;53.478;6.158;2022-07-29T02:28:32;7.03;;;2.13;;
51499;SDS011;39101;53.478;6.158;2022-07-29T02:30:59;3.22;;;1.98;;
51499;SDS011;39101;53.478;6.158;2022-07-29T02:33:27;3.95;;;1.65;;
51499;SDS011;39101;53.478;6.158;2022-07-29T02:35:55;4.20;;;1.33;;
51499;SDS011;39101;53.478;6.158;2022-07-29T02:38:23;7.32;;;1.52;;
51499;SDS011;39101;53.478;6.158;2022-07-29T02:41:12;6.80;;;1.60;;
51499;SDS011;39101;53.478;6.158;2022-07-29T02:43:41;6.75;;;1.30;;
51499;SDS011;39101;53.478;6.158;2022-07-29T02:46:11;4.90;;;1.55;;
51499;SDS011;39101;53.478;6.158;2022-07-29T02:48:46;7.53;;;1.40;;
51499;SDS011;39101;53.478;6.158;2022-07-29T02:51:23;4.40;;;1.50;;
51499;SDS011;39101;53.478;6.158;2022-07-29T02:53:54;4.05;;;1.20;;
51499;SDS011;39101;53.478;6.158;2022-07-29T02:56:26;2.72;;;1.30;;
51499;SDS011;39101;53.478;6.158;2022-07-29T02:58:54;8.05;;;1.40;;
51499;SDS011;39101;53.478;6.158;2022-07-29T03:01:22;4.95;;;1.48;;
51499;SDS011;39101;53.478;6.158;2022-07-29T03:03:51;1.95;;;1.20;;
51499;SDS011;39101;53.478;6.158;2022-07-29T03:06:19;4.03;;;1.33;;
51499;SDS011;39101;53.478;6.158;2022-07-29T03:08:47;7.53;;;1.90;;
51499;SDS011;39101;53.478;6.158;2022-07-29T03:11:14;5.07;;;1.90;;
51499;SDS011;39101;53.478;6.158;2022-07-29T03:13:42;5.53;;;1.58;;
51499;SDS011;39101;53.478;6.158;2022-07-29T03:16:08;6.53;;;1.95;;
51499;SDS011;39101;53.478;6.158;2022-07-29T03:18:35;5.10;;;1.70;;
51499;SDS011;39101;53.478;6.158;2022-07-29T03:21:02;5.57;;;1.50;;
51499;SDS011;39101;53.478;6.158;2022-07-29T03:23:28;5.75;;;1.77;;
51499;SDS011;39101;53.478;6.158;2022-07-29T03:25:54;3.03;;;1.10;;
51499;SDS011;39101;53.478;6.158;2022-07-29T03:28:20;5.88;;;1.38;;
51499;SDS011;39101;53.478;6.158;2022-07-29T03:30:47;6.25;;;1.50;;
51499;SDS011;39101;53.478;6.158;2022-07-29T03:33:13;7.05;;;1.65;;
51499;SDS011;39101;53.478;6.158;2022-07-29T03:35:39;4.57;;;1.60;;
51499;SDS011;39101;53.478;6.158;2022-07-29T03:38:05;3.50;;;1.80;;
51499;SDS011;39101;53.478;6.158;2022-07-29T03:40:48;8.45;;;1.90;;
51499;SDS011;39101;53.478;6.158;2022-07-29T03:43:18;8.70;;;2.20;;
51499;SDS011;39101;53.478;6.158;2022-07-29T03:45:47;8.65;;;1.95;;
51499;SDS011;39101;53.478;6.158;2022-07-29T03:48:15;6.75;;;1.67;;
51499;SDS011;39101;53.478;6.158;2022-07-29T03:50:44;9.48;;;1.58;;
51499;SDS011;39101;53.478;6.158;2022-07-29T03:53:11;4.05;;;1.40;;
51499;SDS011;39101;53.478;6.158;2022-07-29T03:55:40;7.93;;;1.35;;
51499;SDS011;39101;53.478;6.158;2022-07-29T03:58:07;7.45;;;1.92;;
51499;SDS011;39101;53.478;6.158;2022-07-29T04:00:35;4.38;;;1.67;;
51499;SDS011;39101;53.478;6.158;2022-07-29T04:03:01;6.45;;;1.35;;
51499;SDS011;39101;53.478;6.158;2022-07-29T04:05:29;9.55;;;1.50;;
51499;SDS011;39101;53.478;6.158;2022-07-29T04:07:55;4.00;;;1.38;;
51499;SDS011;39101;53.478;6.158;2022-07-29T04:10:21;4.80;;;1.95;;
51499;SDS011;39101;53.478;6.158;2022-07-29T04:12:48;5.28;;;1.50;;
51499;SDS011;39101;53.478;6.158;2022-07-29T04:15:14;8.43;;;1.50;;
51499;SDS011;39101;53.478;6.158;2022-07-29T04:17:40;5.05;;;1.42;;
51499;SDS011;39101;53.478;6.158;2022-07-29T04:20:06;6.93;;;1.58;;
51499;SDS011;39101;53.478;6.158;2022-07-29T04:22:32;3.00;;;1.33;;
51499;SDS011;39101;53.478;6.158;2022-07-29T04:24:58;7.95;;;2.35;;
51499;SDS011;39101;53.478;6.158;2022-07-29T04:27:24;4.50;;;1.40;;
51499;SDS011;39101;53.478;6.158;2022-07-29T04:29:50;10.40;;;2.20;;
51499;SDS011;39101;53.478;6.158;2022-07-29T04:32:16;2.97;;;1.25;;
51499;SDS011;39101;53.478;6.158;2022-07-29T04:34:42;6.10;;;1.65;;
51499;SDS011;39101;53.478;6.158;2022-07-29T04:37:08;5.75;;;1.35;;
51499;SDS011;39101;53.478;6.158;2022-07-29T04:39:34;7.10;;;1.90;;
51499;SDS011;39101;53.478;6.158;2022-07-29T04:41:59;7.43;;;2.03;;
51499;SDS011;39101;53.478;6.158;2022-07-29T04:44:25;7.35;;;2.20;;
51499;SDS011;39101;53.478;6.158;2022-07-29T04:46:51;5.35;;;1.83;;
51499;SDS011;39101;53.478;6.158;2022-07-29T04:49:17;6.82;;;1.80;;
51499;SDS011;39101;53.478;6.158;2022-07-29T04:51:43;7.07;;;1.92;;
51499;SDS011;39101;53.478;6.158;2022-07-29T04:54:09;7.88;;;2.08;;
51499;SDS011;39101;53.478;6.158;2022-07-29T04:56:34;7.78;;;1.40;;
51499;SDS011;39101;53.478;6.158;2022-07-29T04:59:00;9.02;;;1.55;;
51499;SDS011;39101;53.478;6.158;2022-07-29T05:01:26;6.60;;;1.60;;
51499;SDS011;39101;53.478;6.158;2022-07-29T05:03:52;9.02;;;1.73;;
51499;SDS011;39101;53.478;6.158;2022-07-29T05:06:17;6.30;;;1.42;;
51499;SDS011;39101;53.478;6.158;2022-07-29T05:08:43;6.03;;;1.83;;
51499;SDS011;39101;53.478;6.158;2022-07-29T05:11:09;6.38;;;1.50;;
51499;SDS011;39101;53.478;6.158;2022-07-29T05:13:35;5.28;;;1.48;;
51499;SDS011;39101;53.478;6.158;2022-07-29T05:16:01;3.33;;;1.05;;
51499;SDS011;39101;53.478;6.158;2022-07-29T05:18:27;13.50;;;2.03;;
51499;SDS011;39101;53.478;6.158;2022-07-29T05:20:53;8.63;;;1.70;;
51499;SDS011;39101;53.478;6.158;2022-07-29T05:23:19;5.60;;;1.67;;
51499;SDS011;39101;53.478;6.158;2022-07-29T05:25:45;8.93;;;1.85;;
51499;SDS011;39101;53.478;6.158;2022-07-29T05:28:11;8.18;;;1.50;;
51499;SDS011;39101;53.478;6.158;2022-07-29T05:30:37;5.03;;;1.50;;
51499;SDS011;39101;53.478;6.158;2022-07-29T05:33:03;7.15;;;2.00;;
51499;SDS011;39101;53.478;6.158;2022-07-29T05:35:29;8.30;;;2.20;;
51499;SDS011;39101;53.478;6.158;2022-07-29T05:37:54;11.32;;;3.40;;
51499;SDS011;39101;53.478;6.158;2022-07-29T05:40:20;10.68;;;2.00;;
51499;SDS011;39101;53.478;6.158;2022-07-29T05:42:46;15.02;;;2.83;;
51499;SDS011;39101;53.478;6.158;2022-07-29T05:45:12;12.88;;;1.50;;
51499;SDS011;39101;53.478;6.158;2022-07-29T05:47:38;9.43;;;1.70;;
51499;SDS011;39101;53.478;6.158;2022-07-29T05:50:04;7.88;;;1.70;;
51499;SDS011;39101;53.478;6.158;2022-07-29T05:52:30;4.72;;;1.27;;
51499;SDS011;39101;53.478;6.158;2022-07-29T05:54:56;7.05;;;1.48;;
51499;SDS011;39101;53.478;6.158;2022-07-29T05:57:22;4.78;;;1.30;;
51499;SDS011;39101;53.478;6.158;2022-07-29T05:59:49;6.55;;;1.48;;
51499;SDS011;39101;53.478;6.158;2022-07-29T06:02:16;6.90;;;2.53;;
51499;SDS011;39101;53.478;6.158;2022-07-29T06:04:43;8.27;;;2.38;;
51499;SDS011;39101;53.478;6.158;2022-07-29T06:07:09;4.57;;;1.70;;
51499;SDS011;39101;53.478;6.158;2022-07-29T06:09:36;5.05;;;1.73;;
51499;SDS011;39101;53.478;6.158;2022-07-29T06:12:02;8.68;;;1.77;;
51499;SDS011;39101;53.478;6.158;2022-07-29T06:14:28;6.03;;;2.22;;
51499;SDS011;39101;53.478;6.158;2022-07-29T06:16:54;6.63;;;2.00;;
51499;SDS011;39101;53.478;6.158;2022-07-29T06:19:20;9.07;;;2.17;;
51499;SDS011;39101;53.478;6.158;2022-07-29T06:21:46;7.38;;;1.65;;
51499;SDS011;39101;53.478;6.158;2022-07-29T06:24:13;6.05;;;1.55;;
51499;SDS011;39101;53.478;6.158;2022-07-29T06:26:40;10.20;;;1.83;;
51499;SDS011;39101;53.478;6.158;2022-07-29T06:29:06;7.70;;;1.48;;
51499;SDS011;39101;53.478;6.158;2022-07-29T06:31:33;9.00;;;1.33;;
51499;SDS011;39101;53.478;6.158;2022-07-29T06:33:59;7.18;;;1.83;;
51499;SDS011;39101;53.478;6.158;2022-07-29T06:36:27;8.10;;;1.95;;
51499;SDS011;39101;53.478;6.158;2022-07-29T06:38:53;9.15;;;1.92;;
51499;SDS011;39101;53.478;6.158;2022-07-29T06:41:19;8.80;;;3.10;;
51499;SDS011;39101;53.478;6.158;2022-07-29T06:43:45;5.65;;;1.60;;
51499;SDS011;39101;53.478;6.158;2022-07-29T06:46:12;5.05;;;1.63;;
51499;SDS011;39101;53.478;6.158;2022-07-29T06:48:39;4.38;;;1.25;;
51499;SDS011;39101;53.478;6.158;2022-07-29T06:51:07;5.95;;;2.33;;
51499;SDS011;39101;53.478;6.158;2022-07-29T06:53:34;6.85;;;1.52;;
51499;SDS011;39101;53.478;6.158;2022-07-29T06:56:01;7.28;;;1.40;;
51499;SDS011;39101;53.478;6.158;2022-07-29T06:58:28;6.80;;;2.20;;
51499;SDS011;39101;53.478;6.158;2022-07-29T07:00:55;7.43;;;1.83;;
51499;SDS011;39101;53.478;6.158;2022-07-29T07:03:21;5.75;;;1.67;;
51499;SDS011;39101;53.478;6.158;2022-07-29T07:05:47;9.63;;;2.10;;
51499;SDS011;39101;53.478;6.158;2022-07-29T07:08:13;7.90;;;1.73;;
51499;SDS011;39101;53.478;6.158;2022-07-29T07:10:41;10.52;;;1.85;;
51499;SDS011;39101;53.478;6.158;2022-07-29T07:13:08;8.20;;;2.20;;
51499;SDS011;39101;53.478;6.158;2022-07-29T07:15:35;5.20;;;1.38;;
51499;SDS011;39101;53.478;6.158;2022-07-29T07:18:01;6.20;;;2.28;;
51499;SDS011;39101;53.478;6.158;2022-07-29T07:20:28;7.78;;;2.55;;
51499;SDS011;39101;53.478;6.158;2022-07-29T07:22:54;5.88;;;2.15;;
51499;SDS011;39101;53.478;6.158;2022-07-29T07:25:19;7.35;;;1.67;;
51499;SDS011;39101;53.478;6.158;2022-07-29T07:27:45;7.93;;;2.03;;
51499;SDS011;39101;53.478;6.158;2022-07-29T07:30:12;7.00;;;1.77;;
51499;SDS011;39101;53.478;6.158;2022-07-29T07:32:38;8.13;;;2.67;;
51499;SDS011;39101;53.478;6.158;2022-07-29T07:35:04;5.60;;;1.98;;
51499;SDS011;39101;53.478;6.158;2022-07-29T07:37:32;5.97;;;1.83;;
51499;SDS011;39101;53.478;6.158;2022-07-29T07:39:58;5.13;;;1.75;;
51499;SDS011;39101;53.478;6.158;2022-07-29T07:42:24;14.57;;;2.60;;
51499;SDS011;39101;53.478;6.158;2022-07-29T07:44:50;4.03;;;1.58;;
51499;SDS011;39101;53.478;6.158;2022-07-29T07:47:15;8.43;;;1.95;;
51499;SDS011;39101;53.478;6.158;2022-07-29T07:49:47;8.45;;;1.83;;
51499;SDS011;39101;53.478;6.158;2022-07-29T07:52:14;6.43;;;1.67;;
51499;SDS011;39101;53.478;6.158;2022-07-29T07:54:41;8.45;;;2.28;;
51499;SDS011;39101;53.478;6.158;2022-07-29T07:57:08;8.85;;;1.90;;
51499;SDS011;39101;53.478;6.158;2022-07-29T07:59:34;3.72;;;1.52;;
51499;SDS011;39101;53.478;6.158;2022-07-29T08:02:00;7.00;;;1.55;;
51499;SDS011;39101;53.478;6.158;2022-07-29T08:04:26;5.90;;;2.38;;
51499;SDS011;39101;53.478;6.158;2022-07-29T08:06:52;5.43;;;1.77;;
51499;SDS011;39101;53.478;6.158;2022-07-29T08:09:22;7.88;;;1.90;;
51499;SDS011;39101;53.478;6.158;2022-07-29T08:11:49;8.23;;;2.20;;
51499;SDS011;39101;53.478;6.158;2022-07-29T08:14:16;6.82;;;1.80;;
51499;SDS011;39101;53.478;6.158;2022-07-29T08:16:42;5.72;;;1.83;;
51499;SDS011;39101;53.478;6.158;2022-07-29T08:19:08;5.32;;;1.83;;
51499;SDS011;39101;53.478;6.158;2022-07-29T08:21:34;6.63;;;2.10;;
51499;SDS011;39101;53.478;6.158;2022-07-29T08:24:01;5.03;;;1.80;;
51499;SDS011;39101;53.478;6.158;2022-07-29T08:26:45;6.88;;;2.15;;
51499;SDS011;39101;53.478;6.158;2022-07-29T08:29:11;7.60;;;1.98;;
51499;SDS011;39101;53.478;6.158;2022-07-29T08:31:37;7.80;;;2.22;;
51499;SDS011;39101;53.478;6.158;2022-07-29T08:34:03;7.38;;;1.88;;
51499;SDS011;39101;53.478;6.158;2022-07-29T08:36:30;7.13;;;1.63;;
51499;SDS011;39101;53.478;6.158;2022-07-29T08:38:57;8.18;;;1.70;;
51499;SDS011;39101;53.478;6.158;2022-07-29T08:41:23;9.70;;;2.03;;
51499;SDS011;39101;53.478;6.158;2022-07-29T08:43:49;10.95;;;2.40;;
51499;SDS011;39101;53.478;6.158;2022-07-29T08:46:16;7.50;;;1.77;;
51499;SDS011;39101;53.478;6.158;2022-07-29T08:48:43;11.75;;;2.83;;
51499;SDS011;39101;53.478;6.158;2022-07-29T08:51:08;11.27;;;2.20;;
51499;SDS011;39101;53.478;6.158;2022-07-29T08:53:43;7.05;;;2.08;;
51499;SDS011;39101;53.478;6.158;2022-07-29T08:56:12;7.05;;;2.20;;
51499;SDS011;39101;53.478;6.158;2022-07-29T08:58:43;7.38;;;1.70;;
51499;SDS011;39101;53.478;6.158;2022-07-29T09:01:10;11.50;;;2.72;;
51499;SDS011;39101;53.478;6.158;2022-07-29T09:03:39;8.48;;;1.90;;
51499;SDS011;39101;53.478;6.158;2022-07-29T09:06:06;7.90;;;2.30;;
51499;SDS011;39101;53.478;6.158;2022-07-29T09:08:33;10.38;;;3.58;;
51499;SDS011;39101;53.478;6.158;2022-07-29T09:11:00;8.88;;;2.17;;
51499;SDS011;39101;53.478;6.158;2022-07-29T09:13:27;9.65;;;2.38;;
51499;SDS011;39101;53.478;6.158;2022-07-29T09:15:52;8.55;;;2.35;;
51499;SDS011;39101;53.478;6.158;2022-07-29T09:18:35;9.88;;;2.15;;
51499;SDS011;39101;53.478;6.158;2022-07-29T09:21:06;11.55;;;2.47;;
51499;SDS011;39101;53.478;6.158;2022-07-29T09:26:43;6.90;;;2.50;;
51499;SDS011;39101;53.478;6.158;2022-07-29T09:31:40;7.20;;;2.70;;
51499;SDS011;39101;53.478;6.158;2022-07-29T09:34:08;7.05;;;2.17;;
51499;SDS011;39101;53.478;6.158;2022-07-29T09:36:39;9.70;;;2.75;;
51499;SDS011;39101;53.478;6.158;2022-07-29T09:39:05;12.13;;;2.60;;
51499;SDS011;39101;53.478;6.158;2022-07-29T09:41:43;8.52;;;2.85;;
51499;SDS011;39101;53.478;6.158;2022-07-29T09:44:19;13.38;;;3.42;;
51499;SDS011;39101;53.478;6.158;2022-07-29T09:46:59;11.50;;;2.88;;
51499;SDS011;39101;53.478;6.158;2022-07-29T09:49:49;7.95;;;2.58;;
51499;SDS011;39101;53.478;6.158;2022-07-29T09:52:28;11.90;;;2.60;;
51499;SDS011;39101;53.478;6.158;2022-07-29T09:55:07;10.68;;;2.72;;
51499;SDS011;39101;53.478;6.158;2022-07-29T09:57:35;11.57;;;3.05;;
51499;SDS011;39101;53.478;6.158;2022-07-29T10:00:03;10.70;;;2.85;;
51499;SDS011;39101;53.478;6.158;2022-07-29T10:02:34;7.75;;;3.03;;
51499;SDS011;39101;53.478;6.158;2022-07-29T10:05:04;7.40;;;2.80;;
51499;SDS011;39101;53.478;6.158;2022-07-29T10:07:45;12.93;;;2.65;;
51499;SDS011;39101;53.478;6.158;2022-07-29T10:10:18;14.38;;;2.92;;
51499;SDS011;39101;53.478;6.158;2022-07-29T10:12:54;12.25;;;3.10;;
51499;SDS011;39101;53.478;6.158;2022-07-29T10:15:22;11.05;;;3.55;;
51499;SDS011;39101;53.478;6.158;2022-07-29T10:17:50;13.25;;;3.13;;
51499;SDS011;39101;53.478;6.158;2022-07-29T10:20:17;8.90;;;2.85;;
51499;SDS011;39101;53.478;6.158;2022-07-29T10:22:43;10.75;;;3.50;;
51499;SDS011;39101;53.478;6.158;2022-07-29T10:25:09;8.23;;;2.60;;
51499;SDS011;39101;53.478;6.158;2022-07-29T10:27:35;8.48;;;2.38;;
51499;SDS011;39101;53.478;6.158;2022-07-29T10:30:05;6.85;;;2.80;;
51499;SDS011;39101;53.478;6.158;2022-07-29T10:38:21;10.00;;;2.53;;
51499;SDS011;39101;53.478;6.158;2022-07-29T10:41:59;12.10;;;3.03;;
51499;SDS011;39101;53.478;6.158;2022-07-29T10:44:01;7.90;;;2.55;;
51499;SDS011;39101;53.478;6.158;2022-07-29T10:46:53;8.48;;;2.58;;
51499;SDS011;39101;53.478;6.158;2022-07-29T10:49:24;10.23;;;2.85;;
51499;SDS011;39101;53.478;6.158;2022-07-29T10:51:56;9.32;;;2.70;;
51499;SDS011;39101;53.478;6.158;2022-07-29T10:59:45;7.78;;;2.58;;
51499;SDS011;39101;53.478;6.158;2022-07-29T11:05:00;8.13;;;2.63;;
51499;SDS011;39101;53.478;6.158;2022-07-29T11:07:30;8.52;;;3.13;;
51499;SDS011;39101;53.478;6.158;2022-07-29T11:15:06;10.05;;;2.60;;
51499;SDS011;39101;53.478;6.158;2022-07-29T11:20:37;7.80;;;2.78;;
51499;SDS011;39101;53.478;6.158;2022-07-29T11:26:12;11.95;;;3.10;;
51499;SDS011;39101;53.478;6.158;2022-07-29T11:34:44;11.50;;;2.67;;
51499;SDS011;39101;53.478;6.158;2022-07-29T11:39:35;9.75;;;2.70;;
51499;SDS011;39101;53.478;6.158;2022-07-29T11:47:34;11.15;;;3.95;;
51499;SDS011;39101;53.478;6.158;2022-07-29T11:50:29;20.38;;;3.30;;
51499;SDS011;39101;53.478;6.158;2022-07-29T11:52:57;12.82;;;2.95;;
51499;SDS011;39101;53.478;6.158;2022-07-29T11:55:24;10.65;;;2.80;;
51499;SDS011;39101;53.478;6.158;2022-07-29T11:57:57;13.25;;;3.28;;
51499;SDS011;39101;53.478;6.158;2022-07-29T12:02:53;8.40;;;2.60;;
51499;SDS011;39101;53.478;6.158;2022-07-29T12:05:20;14.27;;;3.13;;
51499;SDS011;39101;53.478;6.158;2022-07-29T12:07:55;15.05;;;3.38;;
51499;SDS011;39101;53.478;6.158;2022-07-29T12:10:20;10.93;;;2.80;;
51499;SDS011;39101;53.478;6.158;2022-07-29T12:12:51;12.40;;;2.70;;
51499;SDS011;39101;53.478;6.158;2022-07-29T12:15:20;8.50;;;2.72;;
51499;SDS011;39101;53.478;6.158;2022-07-29T12:17:46;10.18;;;3.28;;
51499;SDS011;39101;53.478;6.158;2022-07-29T12:20:13;15.05;;;4.05;;
51499;SDS011;39101;53.478;6.158;2022-07-29T12:22:46;12.25;;;3.20;;
51499;SDS011;39101;53.478;6.158;2022-07-29T12:25:14;10.65;;;2.90;;
51499;SDS011;39101;53.478;6.158;2022-07-29T12:27:42;14.55;;;3.38;;
51499;SDS011;39101;53.478;6.158;2022-07-29T12:30:15;11.40;;;3.03;;
51499;SDS011;39101;53.478;6.158;2022-07-29T12:32:43;10.15;;;2.90;;
51499;SDS011;39101;53.478;6.158;2022-07-29T12:35:15;12.75;;;3.90;;
51499;SDS011;39101;53.478;6.158;2022-07-29T12:37:46;12.07;;;3.22;;
51499;SDS011;39101;53.478;6.158;2022-07-29T12:40:15;11.43;;;3.03;;
51499;SDS011;39101;53.478;6.158;2022-07-29T12:43:04;7.47;;;3.28;;
51499;SDS011;39101;53.478;6.158;2022-07-29T12:45:30;11.65;;;3.70;;
51499;SDS011;39101;53.478;6.158;2022-07-29T12:47:56;9.48;;;3.05;;
51499;SDS011;39101;53.478;6.158;2022-07-29T12:50:22;9.35;;;3.10;;
51499;SDS011;39101;53.478;6.158;2022-07-29T12:52:49;11.57;;;3.30;;
51499;SDS011;39101;53.478;6.158;2022-07-29T12:55:14;10.13;;;3.00;;
51499;SDS011;39101;53.478;6.158;2022-07-29T12:57:44;8.27;;;3.38;;
51499;SDS011;39101;53.478;6.158;2022-07-29T13:00:12;10.25;;;3.72;;
51499;SDS011;39101;53.478;6.158;2022-07-29T13:02:39;9.00;;;3.40;;
51499;SDS011;39101;53.478;6.158;2022-07-29T13:05:06;11.70;;;3.17;;
51499;SDS011;39101;53.478;6.158;2022-07-29T13:07:33;9.38;;;3.45;;
51499;SDS011;39101;53.478;6.158;2022-07-29T13:10:13;12.18;;;3.50;;
51499;SDS011;39101;53.478;6.158;2022-07-29T13:15:32;12.57;;;3.55;;
51499;SDS011;39101;53.478;6.158;2022-07-29T13:17:58;10.02;;;3.45;;
51499;SDS011;39101;53.478;6.158;2022-07-29T13:20:25;12.00;;;3.60;;
51499;SDS011;39101;53.478;6.158;2022-07-29T13:25:25;12.40;;;3.13;;
51499;SDS011;39101;53.478;6.158;2022-07-29T13:27:52;14.68;;;4.38;;
51499;SDS011;39101;53.478;6.158;2022-07-29T13:30:19;12.50;;;3.92;;
51499;SDS011;39101;53.478;6.158;2022-07-29T13:32:46;11.52;;;3.65;;
51499;SDS011;39101;53.478;6.158;2022-07-29T13:35:12;12.88;;;3.80;;
51499;SDS011;39101;53.478;6.158;2022-07-29T13:37:38;14.50;;;3.50;;
51499;SDS011;39101;53.478;6.158;2022-07-29T13:40:05;11.27;;;3.67;;
51499;SDS011;39101;53.478;6.158;2022-07-29T13:42:32;17.00;;;4.13;;
51499;SDS011;39101;53.478;6.158;2022-07-29T13:44:59;14.35;;;3.67;;
51499;SDS011;39101;53.478;6.158;2022-07-29T13:47:25;10.82;;;3.42;;
51499;SDS011;39101;53.478;6.158;2022-07-29T13:49:52;14.27;;;4.10;;
51499;SDS011;39101;53.478;6.158;2022-07-29T13:52:18;15.48;;;3.13;;
51499;SDS011;39101;53.478;6.158;2022-07-29T13:54:44;14.35;;;3.25;;
51499;SDS011;39101;53.478;6.158;2022-07-29T13:57:10;11.70;;;3.60;;
51499;SDS011;39101;53.478;6.158;2022-07-29T13:59:37;8.65;;;2.60;;
51499;SDS011;39101;53.478;6.158;2022-07-29T14:02:07;11.70;;;3.40;;
51499;SDS011;39101;53.478;6.158;2022-07-29T14:04:34;12.95;;;3.55;;
51499;SDS011;39101;53.478;6.158;2022-07-29T14:07:00;14.57;;;3.28;;
51499;SDS011;39101;53.478;6.158;2022-07-29T14:09:26;16.08;;;3.30;;
51499;SDS011;39101;53.478;6.158;2022-07-29T14:11:52;7.35;;;2.72;;
51499;SDS011;39101;53.478;6.158;2022-07-29T14:14:18;10.38;;;3.20;;
51499;SDS011;39101;53.478;6.158;2022-07-29T14:16:44;14.07;;;3.30;;
51499;SDS011;39101;53.478;6.158;2022-07-29T14:19:10;12.45;;;3.30;;
51499;SDS011;39101;53.478;6.158;2022-07-29T14:21:36;15.18;;;4.63;;
51499;SDS011;39101;53.478;6.158;2022-07-29T14:24:03;14.25;;;3.25;;
51499;SDS011;39101;53.478;6.158;2022-07-29T14:26:29;10.55;;;3.60;;
51499;SDS011;39101;53.478;6.158;2022-07-29T14:28:55;8.98;;;3.47;;
51499;SDS011;39101;53.478;6.158;2022-07-29T14:31:21;16.10;;;3.72;;
51499;SDS011;39101;53.478;6.158;2022-07-29T14:33:47;10.98;;;3.88;;
51499;SDS011;39101;53.478;6.158;2022-07-29T14:36:12;12.43;;;3.35;;
51499;SDS011;39101;53.478;6.158;2022-07-29T14:38:38;16.35;;;3.72;;
51499;SDS011;39101;53.478;6.158;2022-07-29T14:41:05;13.15;;;3.80;;
51499;SDS011;39101;53.478;6.158;2022-07-29T14:43:33;8.93;;;3.33;;
51499;SDS011;39101;53.478;6.158;2022-07-29T14:46:00;14.82;;;3.58;;
51499;SDS011;39101;53.478;6.158;2022-07-29T14:48:26;11.32;;;3.97;;
51499;SDS011;39101;53.478;6.158;2022-07-29T14:50:52;13.65;;;3.38;;
51499;SDS011;39101;53.478;6.158;2022-07-29T14:53:19;14.63;;;3.38;;
51499;SDS011;39101;53.478;6.158;2022-07-29T14:55:45;11.35;;;3.35;;
51499;SDS011;39101;53.478;6.158;2022-07-29T14:58:11;15.35;;;4.05;;
51499;SDS011;39101;53.478;6.158;2022-07-29T15:00:37;9.63;;;4.07;;
51499;SDS011;39101;53.478;6.158;2022-07-29T15:03:03;10.60;;;3.28;;
51499;SDS011;39101;53.478;6.158;2022-07-29T15:05:29;14.23;;;3.80;;
51499;SDS011;39101;53.478;6.158;2022-07-29T15:07:56;13.57;;;3.80;;
51499;SDS011;39101;53.478;6.158;2022-07-29T15:10:22;13.45;;;3.55;;
51499;SDS011;39101;53.478;6.158;2022-07-29T15:12:48;16.23;;;4.70;;
51499;SDS011;39101;53.478;6.158;2022-07-29T15:15:14;15.48;;;2.92;;
51499;SDS011;39101;53.478;6.158;2022-07-29T15:17:39;15.00;;;4.50;;
51499;SDS011;39101;53.478;6.158;2022-07-29T15:20:05;15.65;;;3.88;;
51499;SDS011;39101;53.478;6.158;2022-07-29T15:22:31;12.23;;;3.25;;
51499;SDS011;39101;53.478;6.158;2022-07-29T15:24:57;13.02;;;4.85;;
51499;SDS011;39101;53.478;6.158;2022-07-29T15:27:23;11.98;;;2.92;;
51499;SDS011;39101;53.478;6.158;2022-07-29T15:29:49;15.48;;;4.00;;
51499;SDS011;39101;53.478;6.158;2022-07-29T15:32:15;18.75;;;3.88;;
51499;SDS011;39101;53.478;6.158;2022-07-29T15:34:41;10.20;;;3.33;;
51499;SDS011;39101;53.478;6.158;2022-07-29T15:37:07;11.25;;;3.58;;
51499;SDS011;39101;53.478;6.158;2022-07-29T15:39:33;13.93;;;4.43;;
51499;SDS011;39101;53.478;6.158;2022-07-29T15:41:58;11.30;;;3.58;;
51499;SDS011;39101;53.478;6.158;2022-07-29T15:44:25;15.70;;;3.60;;
51499;SDS011;39101;53.478;6.158;2022-07-29T15:46:51;10.65;;;4.20;;
51499;SDS011;39101;53.478;6.158;2022-07-29T15:49:36;14.70;;;3.83;;